sensor_id;sensor_type;location;lat;lon;timestamp;temperature;humidity
56729;DHT22;42612;52.232;7.560;2023-04-21T00:01:03;14.60;53.60
56729;DHT22;42612;52.232;7.560;2023-04-21T00:03:33;14.60;53.70
56729;DHT22;42612;52.232;7.560;2023-04-21T00:06:03;14.60;53.80
56729;DHT22;42612;52.232;7.560;2023-04-21T00:08:34;14.60;53.80
56729;DHT22;42612;52.232;7.560;2023-04-21T00:11:07;14.60;53.70
56729;DHT22;42612;52.232;7.560;2023-04-21T00:13:33;14.60;53.80
56729;DHT22;42612;52.232;7.560;2023-04-21T00:15:59;14.60;53.80
56729;DHT22;42612;52.232;7.560;2023-04-21T00:18:26;14.60;53.80
56729;DHT22;42612;52.232;7.560;2023-04-21T00:20:52;14.60;53.90
56729;DHT22;42612;52.232;7.560;2023-04-21T00:23:17;14.70;54.00
56729;DHT22;42612;52.232;7.560;2023-04-21T00:25:43;14.60;54.00
56729;DHT22;42612;52.232;7.560;2023-04-21T00:28:09;14.60;54.10
56729;DHT22;42612;52.232;7.560;2023-04-21T00:30:34;14.60;54.10
56729;DHT22;42612;52.232;7.560;2023-04-21T00:33:00;14.70;54.30
56729;DHT22;42612;52.232;7.560;2023-04-21T00:35:26;14.60;54.20
56729;DHT22;42612;52.232;7.560;2023-04-21T00:37:52;14.60;54.20
56729;DHT22;42612;52.232;7.560;2023-04-21T00:40:17;14.60;54.40
56729;DHT22;42612;52.232;7.560;2023-04-21T00:42:43;14.70;54.40
56729;DHT22;42612;52.232;7.560;2023-04-21T00:45:09;14.60;54.40
56729;DHT22;42612;52.232;7.560;2023-04-21T00:47:35;14.70;54.60
56729;DHT22;42612;52.232;7.560;2023-04-21T00:50:02;14.70;54.50
56729;DHT22;42612;52.232;7.560;2023-04-21T00:52:28;14.70;54.70
56729;DHT22;42612;52.232;7.560;2023-04-21T00:54:55;14.60;54.50
56729;DHT22;42612;52.232;7.560;2023-04-21T00:57:22;14.70;54.70
56729;DHT22;42612;52.232;7.560;2023-04-21T00:59:48;14.70;54.60
56729;DHT22;42612;52.232;7.560;2023-04-21T01:02:15;14.70;54.60
56729;DHT22;42612;52.232;7.560;2023-04-21T01:04:42;14.70;54.70
56729;DHT22;42612;52.232;7.560;2023-04-21T01:07:09;14.70;54.70
56729;DHT22;42612;52.232;7.560;2023-04-21T01:09:35;14.60;54.60
56729;DHT22;42612;52.232;7.560;2023-04-21T01:12:10;14.60;54.60
56729;DHT22;42612;52.232;7.560;2023-04-21T01:14:39;14.60;55.10
56729;DHT22;42612;52.232;7.560;2023-04-21T01:17:06;14.60;54.80
56729;DHT22;42612;52.232;7.560;2023-04-21T01:19:38;14.60;54.90
56729;DHT22;42612;52.232;7.560;2023-04-21T01:22:06;14.60;55.20
56729;DHT22;42612;52.232;7.560;2023-04-21T01:24:43;14.60;54.90
56729;DHT22;42612;52.232;7.560;2023-04-21T01:27:16;14.60;55.30
56729;DHT22;42612;52.232;7.560;2023-04-21T01:29:48;14.60;55.20
56729;DHT22;42612;52.232;7.560;2023-04-21T01:32:21;14.60;55.00
56729;DHT22;42612;52.232;7.560;2023-04-21T01:34:50;14.60;55.00
56729;DHT22;42612;52.232;7.560;2023-04-21T01:37:19;14.60;54.90
56729;DHT22;42612;52.232;7.560;2023-04-21T01:39:49;14.50;55.10
56729;DHT22;42612;52.232;7.560;2023-04-21T01:42:20;14.50;55.10
56729;DHT22;42612;52.232;7.560;2023-04-21T01:44:47;14.50;55.00
56729;DHT22;42612;52.232;7.560;2023-04-21T01:47:14;14.50;55.00
56729;DHT22;42612;52.232;7.560;2023-04-21T01:49:40;14.50;55.00
56729;DHT22;42612;52.232;7.560;2023-04-21T01:52:06;14.50;55.10
56729;DHT22;42612;52.232;7.560;2023-04-21T01:54:32;14.50;55.10
56729;DHT22;42612;52.232;7.560;2023-04-21T01:56:57;14.50;55.10
56729;DHT22;42612;52.232;7.560;2023-04-21T01:59:23;14.50;55.20
56729;DHT22;42612;52.232;7.560;2023-04-21T02:01:49;14.50;55.30
56729;DHT22;42612;52.232;7.560;2023-04-21T02:04:15;14.50;55.30
56729;DHT22;42612;52.232;7.560;2023-04-21T02:06:40;14.50;55.30
56729;DHT22;42612;52.232;7.560;2023-04-21T02:09:06;14.50;55.30
56729;DHT22;42612;52.232;7.560;2023-04-21T02:11:32;14.50;55.20
56729;DHT22;42612;52.232;7.560;2023-04-21T02:13:57;14.50;55.30
56729;DHT22;42612;52.232;7.560;2023-04-21T02:16:23;14.50;55.20
56729;DHT22;42612;52.232;7.560;2023-04-21T02:18:51;14.50;55.20
56729;DHT22;42612;52.232;7.560;2023-04-21T02:21:19;14.50;55.30
56729;DHT22;42612;52.232;7.560;2023-04-21T02:23:48;14.50;55.30
56729;DHT22;42612;52.232;7.560;2023-04-21T02:26:14;14.50;55.40
56729;DHT22;42612;52.232;7.560;2023-04-21T02:28:40;14.50;56.10
56729;DHT22;42612;52.232;7.560;2023-04-21T02:31:06;14.50;55.50
56729;DHT22;42612;52.232;7.560;2023-04-21T02:33:31;14.50;55.40
56729;DHT22;42612;52.232;7.560;2023-04-21T02:35:57;14.50;55.50
56729;DHT22;42612;52.232;7.560;2023-04-21T02:38:23;14.60;55.50
56729;DHT22;42612;52.232;7.560;2023-04-21T02:40:48;14.60;55.50
56729;DHT22;42612;52.232;7.560;2023-04-21T02:43:15;14.60;55.60
56729;DHT22;42612;52.232;7.560;2023-04-21T02:45:41;14.60;55.60
56729;DHT22;42612;52.232;7.560;2023-04-21T02:48:07;14.60;55.60
56729;DHT22;42612;52.232;7.560;2023-04-21T02:50:33;14.60;55.60
56729;DHT22;42612;52.232;7.560;2023-04-21T02:52:59;14.70;55.60
56729;DHT22;42612;52.232;7.560;2023-04-21T02:55:24;14.60;55.50
56729;DHT22;42612;52.232;7.560;2023-04-21T02:57:50;14.60;55.50
56729;DHT22;42612;52.232;7.560;2023-04-21T03:00:16;14.70;55.60
56729;DHT22;42612;52.232;7.560;2023-04-21T03:02:42;14.70;55.60
56729;DHT22;42612;52.232;7.560;2023-04-21T03:05:09;14.70;55.60
56729;DHT22;42612;52.232;7.560;2023-04-21T03:07:35;14.70;55.50
56729;DHT22;42612;52.232;7.560;2023-04-21T03:10:01;14.70;55.50
56729;DHT22;42612;52.232;7.560;2023-04-21T03:12:27;14.70;55.50
56729;DHT22;42612;52.232;7.560;2023-04-21T03:14:52;14.70;55.60
56729;DHT22;42612;52.232;7.560;2023-04-21T03:17:18;14.70;55.50
56729;DHT22;42612;52.232;7.560;2023-04-21T03:19:44;14.70;55.60
56729;DHT22;42612;52.232;7.560;2023-04-21T03:22:10;14.70;55.50
56729;DHT22;42612;52.232;7.560;2023-04-21T03:24:35;14.70;55.50
56729;DHT22;42612;52.232;7.560;2023-04-21T03:27:01;14.70;55.40
56729;DHT22;42612;52.232;7.560;2023-04-21T03:29:27;14.70;55.50
56729;DHT22;42612;52.232;7.560;2023-04-21T03:31:52;14.70;55.40
56729;DHT22;42612;52.232;7.560;2023-04-21T03:34:18;14.70;55.50
56729;DHT22;42612;52.232;7.560;2023-04-21T03:36:44;14.70;55.50
56729;DHT22;42612;52.232;7.560;2023-04-21T03:39:10;14.70;55.50
56729;DHT22;42612;52.232;7.560;2023-04-21T03:41:35;14.70;55.50
56729;DHT22;42612;52.232;7.560;2023-04-21T03:44:01;14.70;55.50
56729;DHT22;42612;52.232;7.560;2023-04-21T03:46:27;14.70;55.40
56729;DHT22;42612;52.232;7.560;2023-04-21T03:48:52;14.70;55.40
56729;DHT22;42612;52.232;7.560;2023-04-21T03:51:18;14.70;55.40
56729;DHT22;42612;52.232;7.560;2023-04-21T03:53:44;14.70;55.40
56729;DHT22;42612;52.232;7.560;2023-04-21T03:56:09;14.60;55.40
56729;DHT22;42612;52.232;7.560;2023-04-21T03:58:35;14.70;55.50
56729;DHT22;42612;52.232;7.560;2023-04-21T04:01:03;14.60;55.40
56729;DHT22;42612;52.232;7.560;2023-04-21T04:03:29;14.60;55.40
56729;DHT22;42612;52.232;7.560;2023-04-21T04:05:55;14.60;55.40
56729;DHT22;42612;52.232;7.560;2023-04-21T04:08:20;14.60;55.40
56729;DHT22;42612;52.232;7.560;2023-04-21T04:10:46;14.60;55.40
56729;DHT22;42612;52.232;7.560;2023-04-21T04:13:12;14.60;55.40
56729;DHT22;42612;52.232;7.560;2023-04-21T04:15:37;14.60;55.50
56729;DHT22;42612;52.232;7.560;2023-04-21T04:18:03;14.60;55.50
56729;DHT22;42612;52.232;7.560;2023-04-21T04:20:29;14.60;55.50
56729;DHT22;42612;52.232;7.560;2023-04-21T04:22:54;14.60;55.50
56729;DHT22;42612;52.232;7.560;2023-04-21T04:25:20;14.50;55.50
56729;DHT22;42612;52.232;7.560;2023-04-21T04:27:46;14.50;55.60
56729;DHT22;42612;52.232;7.560;2023-04-21T04:30:15;14.60;55.60
56729;DHT22;42612;52.232;7.560;2023-04-21T04:32:41;14.50;55.60
56729;DHT22;42612;52.232;7.560;2023-04-21T04:35:27;14.60;55.70
56729;DHT22;42612;52.232;7.560;2023-04-21T04:37:52;14.60;56.50
56729;DHT22;42612;52.232;7.560;2023-04-21T04:40:19;14.60;55.70
56729;DHT22;42612;52.232;7.560;2023-04-21T04:42:45;14.50;55.70
56729;DHT22;42612;52.232;7.560;2023-04-21T04:45:13;14.60;55.70
56729;DHT22;42612;52.232;7.560;2023-04-21T04:47:41;14.60;55.70
56729;DHT22;42612;52.232;7.560;2023-04-21T04:50:06;14.60;55.70
56729;DHT22;42612;52.232;7.560;2023-04-21T04:52:32;14.60;55.70
56729;DHT22;42612;52.232;7.560;2023-04-21T04:54:58;14.60;55.80
56729;DHT22;42612;52.232;7.560;2023-04-21T04:57:24;14.60;55.70
56729;DHT22;42612;52.232;7.560;2023-04-21T04:59:54;14.60;55.70
56729;DHT22;42612;52.232;7.560;2023-04-21T05:02:20;14.60;55.90
56729;DHT22;42612;52.232;7.560;2023-04-21T05:04:48;14.60;55.70
56729;DHT22;42612;52.232;7.560;2023-04-21T05:07:16;14.60;55.90
56729;DHT22;42612;52.232;7.560;2023-04-21T05:09:42;14.60;55.40
56729;DHT22;42612;52.232;7.560;2023-04-21T05:12:07;14.60;55.60
56729;DHT22;42612;52.232;7.560;2023-04-21T05:14:33;14.60;55.70
56729;DHT22;42612;52.232;7.560;2023-04-21T05:16:59;14.60;55.80
56729;DHT22;42612;52.232;7.560;2023-04-21T05:19:24;14.60;55.90
56729;DHT22;42612;52.232;7.560;2023-04-21T05:21:50;14.60;56.00
56729;DHT22;42612;52.232;7.560;2023-04-21T05:24:16;14.60;56.00
56729;DHT22;42612;52.232;7.560;2023-04-21T05:26:47;14.60;55.90
56729;DHT22;42612;52.232;7.560;2023-04-21T05:29:13;14.60;56.00
56729;DHT22;42612;52.232;7.560;2023-04-21T05:31:39;14.70;56.10
56729;DHT22;42612;52.232;7.560;2023-04-21T05:34:05;14.70;56.00
56729;DHT22;42612;52.232;7.560;2023-04-21T05:36:30;14.70;56.00
56729;DHT22;42612;52.232;7.560;2023-04-21T05:38:56;14.70;56.00
56729;DHT22;42612;52.232;7.560;2023-04-21T05:41:22;14.70;56.10
56729;DHT22;42612;52.232;7.560;2023-04-21T05:43:48;14.70;56.00
56729;DHT22;42612;52.232;7.560;2023-04-21T05:46:14;14.70;56.00
56729;DHT22;42612;52.232;7.560;2023-04-21T05:48:39;14.80;56.00
56729;DHT22;42612;52.232;7.560;2023-04-21T05:51:12;14.80;56.00
56729;DHT22;42612;52.232;7.560;2023-04-21T05:53:40;14.80;56.30
56729;DHT22;42612;52.232;7.560;2023-04-21T05:56:08;14.80;56.10
56729;DHT22;42612;52.232;7.560;2023-04-21T05:58:34;14.90;56.10
56729;DHT22;42612;52.232;7.560;2023-04-21T06:01:01;14.90;56.00
56729;DHT22;42612;52.232;7.560;2023-04-21T06:03:29;14.80;55.80
56729;DHT22;42612;52.232;7.560;2023-04-21T06:05:56;14.90;55.90
56729;DHT22;42612;52.232;7.560;2023-04-21T06:08:23;14.90;55.80
56729;DHT22;42612;52.232;7.560;2023-04-21T06:10:49;14.90;55.80
56729;DHT22;42612;52.232;7.560;2023-04-21T06:13:15;15.00;55.80
56729;DHT22;42612;52.232;7.560;2023-04-21T06:15:40;15.00;55.80
56729;DHT22;42612;52.232;7.560;2023-04-21T06:18:06;15.00;55.80
56729;DHT22;42612;52.232;7.560;2023-04-21T06:20:32;15.00;55.80
56729;DHT22;42612;52.232;7.560;2023-04-21T06:22:58;15.10;55.80
56729;DHT22;42612;52.232;7.560;2023-04-21T06:25:23;15.10;55.80
56729;DHT22;42612;52.232;7.560;2023-04-21T06:27:49;15.10;55.80
56729;DHT22;42612;52.232;7.560;2023-04-21T06:30:15;15.10;55.70
56729;DHT22;42612;52.232;7.560;2023-04-21T06:32:42;15.20;55.90
56729;DHT22;42612;52.232;7.560;2023-04-21T06:35:10;15.20;55.80
56729;DHT22;42612;52.232;7.560;2023-04-21T06:37:36;15.20;55.80
56729;DHT22;42612;52.232;7.560;2023-04-21T06:40:02;15.30;55.80
56729;DHT22;42612;52.232;7.560;2023-04-21T06:42:28;15.30;55.80
56729;DHT22;42612;52.232;7.560;2023-04-21T06:44:53;15.30;55.60
56729;DHT22;42612;52.232;7.560;2023-04-21T06:47:20;15.30;55.60
56729;DHT22;42612;52.232;7.560;2023-04-21T06:49:46;15.30;55.60
56729;DHT22;42612;52.232;7.560;2023-04-21T06:52:12;15.40;55.60
56729;DHT22;42612;52.232;7.560;2023-04-21T06:54:38;15.40;55.70
56729;DHT22;42612;52.232;7.560;2023-04-21T06:57:04;15.40;55.60
56729;DHT22;42612;52.232;7.560;2023-04-21T06:59:30;15.50;55.70
56729;DHT22;42612;52.232;7.560;2023-04-21T07:01:55;15.50;55.70
56729;DHT22;42612;52.232;7.560;2023-04-21T07:04:21;15.50;55.70
56729;DHT22;42612;52.232;7.560;2023-04-21T07:06:47;15.60;55.70
56729;DHT22;42612;52.232;7.560;2023-04-21T07:09:13;15.60;55.70
56729;DHT22;42612;52.232;7.560;2023-04-21T07:11:39;15.70;55.70
56729;DHT22;42612;52.232;7.560;2023-04-21T07:14:05;15.70;55.60
56729;DHT22;42612;52.232;7.560;2023-04-21T07:16:31;15.70;55.60
56729;DHT22;42612;52.232;7.560;2023-04-21T07:18:57;15.80;55.60
56729;DHT22;42612;52.232;7.560;2023-04-21T07:21:23;15.80;55.50
56729;DHT22;42612;52.232;7.560;2023-04-21T07:23:48;15.90;55.50
56729;DHT22;42612;52.232;7.560;2023-04-21T07:26:14;15.90;55.50
56729;DHT22;42612;52.232;7.560;2023-04-21T07:28:40;16.00;55.40
56729;DHT22;42612;52.232;7.560;2023-04-21T07:31:06;16.00;55.50
56729;DHT22;42612;52.232;7.560;2023-04-21T07:33:32;16.10;55.50
56729;DHT22;42612;52.232;7.560;2023-04-21T07:35:57;16.10;55.40
56729;DHT22;42612;52.232;7.560;2023-04-21T07:38:23;16.20;55.50
56729;DHT22;42612;52.232;7.560;2023-04-21T07:40:49;16.20;55.40
56729;DHT22;42612;52.232;7.560;2023-04-21T07:43:15;16.20;55.10
56729;DHT22;42612;52.232;7.560;2023-04-21T07:45:41;16.30;55.00
56729;DHT22;42612;52.232;7.560;2023-04-21T07:48:07;16.30;54.90
56729;DHT22;42612;52.232;7.560;2023-04-21T07:50:33;16.40;54.90
56729;DHT22;42612;52.232;7.560;2023-04-21T07:53:02;16.40;54.80
56729;DHT22;42612;52.232;7.560;2023-04-21T07:55:28;16.40;54.80
56729;DHT22;42612;52.232;7.560;2023-04-21T07:57:54;16.50;54.80
56729;DHT22;42612;52.232;7.560;2023-04-21T08:00:20;16.50;54.70
56729;DHT22;42612;52.232;7.560;2023-04-21T08:02:46;16.50;54.60
56729;DHT22;42612;52.232;7.560;2023-04-21T08:05:12;16.50;54.60
56729;DHT22;42612;52.232;7.560;2023-04-21T08:07:37;16.50;54.50
56729;DHT22;42612;52.232;7.560;2023-04-21T08:10:05;16.50;54.60
56729;DHT22;42612;52.232;7.560;2023-04-21T08:12:31;16.50;54.40
56729;DHT22;42612;52.232;7.560;2023-04-21T08:14:57;16.50;54.40
56729;DHT22;42612;52.232;7.560;2023-04-21T08:17:23;16.60;54.30
56729;DHT22;42612;52.232;7.560;2023-04-21T08:19:48;16.60;54.30
56729;DHT22;42612;52.232;7.560;2023-04-21T08:22:14;16.60;54.30
56729;DHT22;42612;52.232;7.560;2023-04-21T08:24:40;16.70;54.30
56729;DHT22;42612;52.232;7.560;2023-04-21T08:27:05;16.70;54.40
56729;DHT22;42612;52.232;7.560;2023-04-21T08:29:31;16.70;54.40
56729;DHT22;42612;52.232;7.560;2023-04-21T08:31:57;16.70;54.50
56729;DHT22;42612;52.232;7.560;2023-04-21T08:34:22;16.80;54.50
56729;DHT22;42612;52.232;7.560;2023-04-21T08:36:48;16.80;54.60
56729;DHT22;42612;52.232;7.560;2023-04-21T08:39:15;16.80;54.60
56729;DHT22;42612;52.232;7.560;2023-04-21T08:41:41;16.90;54.40
56729;DHT22;42612;52.232;7.560;2023-04-21T08:44:08;16.90;54.40
56729;DHT22;42612;52.232;7.560;2023-04-21T08:46:36;16.90;54.50
56729;DHT22;42612;52.232;7.560;2023-04-21T08:49:02;17.00;54.50
56729;DHT22;42612;52.232;7.560;2023-04-21T08:51:28;17.00;54.20
56729;DHT22;42612;52.232;7.560;2023-04-21T08:53:57;17.10;54.00
56729;DHT22;42612;52.232;7.560;2023-04-21T08:56:23;17.10;54.00
56729;DHT22;42612;52.232;7.560;2023-04-21T08:58:50;17.20;54.10
56729;DHT22;42612;52.232;7.560;2023-04-21T09:01:16;17.30;54.20
56729;DHT22;42612;52.232;7.560;2023-04-21T09:03:42;17.30;53.90
56729;DHT22;42612;52.232;7.560;2023-04-21T09:06:09;17.40;53.70
56729;DHT22;42612;52.232;7.560;2023-04-21T09:08:38;17.50;53.50
56729;DHT22;42612;52.232;7.560;2023-04-21T09:11:07;17.50;53.30
56729;DHT22;42612;52.232;7.560;2023-04-21T09:13:35;17.60;53.20
56729;DHT22;42612;52.232;7.560;2023-04-21T09:16:03;17.60;53.10
56729;DHT22;42612;52.232;7.560;2023-04-21T09:18:31;17.60;53.00
56729;DHT22;42612;52.232;7.560;2023-04-21T09:23:46;17.70;52.70
56729;DHT22;42612;52.232;7.560;2023-04-21T09:26:17;17.70;52.80
56729;DHT22;42612;52.232;7.560;2023-04-21T09:28:46;17.70;52.70
56729;DHT22;42612;52.232;7.560;2023-04-21T09:31:22;17.70;52.60
56729;DHT22;42612;52.232;7.560;2023-04-21T09:33:53;17.80;52.40
56729;DHT22;42612;52.232;7.560;2023-04-21T09:36:22;17.80;52.60
56729;DHT22;42612;52.232;7.560;2023-04-21T09:39:01;17.90;53.40
56729;DHT22;42612;52.232;7.560;2023-04-21T09:41:33;17.90;52.30
56729;DHT22;42612;52.232;7.560;2023-04-21T09:43:58;17.90;52.50
56729;DHT22;42612;52.232;7.560;2023-04-21T09:46:32;18.00;52.50
56729;DHT22;42612;52.232;7.560;2023-04-21T09:49:02;18.00;52.30
56729;DHT22;42612;52.232;7.560;2023-04-21T09:51:29;18.00;52.10
56729;DHT22;42612;52.232;7.560;2023-04-21T09:53:59;18.10;52.00
56729;DHT22;42612;52.232;7.560;2023-04-21T09:56:28;18.10;51.80
56729;DHT22;42612;52.232;7.560;2023-04-21T09:59:00;18.20;51.80
56729;DHT22;42612;52.232;7.560;2023-04-21T10:01:29;18.20;51.70
56729;DHT22;42612;52.232;7.560;2023-04-21T10:03:55;18.20;51.90
56729;DHT22;42612;52.232;7.560;2023-04-21T10:06:22;18.20;51.90
56729;DHT22;42612;52.232;7.560;2023-04-21T10:08:49;18.30;52.70
56729;DHT22;42612;52.232;7.560;2023-04-21T10:11:15;18.30;52.00
56729;DHT22;42612;52.232;7.560;2023-04-21T10:13:43;18.30;52.00
56729;DHT22;42612;52.232;7.560;2023-04-21T10:16:09;18.40;52.00
56729;DHT22;42612;52.232;7.560;2023-04-21T10:18:43;18.40;51.80
56729;DHT22;42612;52.232;7.560;2023-04-21T10:21:12;18.50;51.60
56729;DHT22;42612;52.232;7.560;2023-04-21T10:23:46;18.50;51.50
56729;DHT22;42612;52.232;7.560;2023-04-21T10:36:30;18.70;50.70
56729;DHT22;42612;52.232;7.560;2023-04-21T10:39:00;18.70;51.00
56729;DHT22;42612;52.232;7.560;2023-04-21T10:41:33;18.80;50.70
56729;DHT22;42612;52.232;7.560;2023-04-21T10:47:00;18.80;50.50
56729;DHT22;42612;52.232;7.560;2023-04-21T10:49:27;18.90;50.30
56729;DHT22;42612;52.232;7.560;2023-04-21T10:54:23;19.00;50.90
56729;DHT22;42612;52.232;7.560;2023-04-21T10:56:55;19.10;51.10
56729;DHT22;42612;52.232;7.560;2023-04-21T10:59:22;19.10;51.30
56729;DHT22;42612;52.232;7.560;2023-04-21T11:01:48;19.30;51.30
56729;DHT22;42612;52.232;7.560;2023-04-21T11:04:20;19.40;51.30
56729;DHT22;42612;52.232;7.560;2023-04-21T11:07:15;19.60;50.60
56729;DHT22;42612;52.232;7.560;2023-04-21T11:09:45;19.70;49.70
56729;DHT22;42612;52.232;7.560;2023-04-21T11:12:17;19.80;50.30
56729;DHT22;42612;52.232;7.560;2023-04-21T11:14:44;19.90;50.10
56729;DHT22;42612;52.232;7.560;2023-04-21T11:17:16;20.00;49.80
56729;DHT22;42612;52.232;7.560;2023-04-21T11:19:47;20.10;49.70
56729;DHT22;42612;52.232;7.560;2023-04-21T11:22:16;20.20;49.60
56729;DHT22;42612;52.232;7.560;2023-04-21T11:24:46;20.20;49.80
56729;DHT22;42612;52.232;7.560;2023-04-21T11:27:13;20.30;49.70
56729;DHT22;42612;52.232;7.560;2023-04-21T11:29:40;20.40;49.30
56729;DHT22;42612;52.232;7.560;2023-04-21T11:32:07;20.50;49.10
56729;DHT22;42612;52.232;7.560;2023-04-21T11:34:33;20.60;48.90
56729;DHT22;42612;52.232;7.560;2023-04-21T11:37:01;20.70;48.50
56729;DHT22;42612;52.232;7.560;2023-04-21T11:39:27;20.70;48.10
56729;DHT22;42612;52.232;7.560;2023-04-21T11:41:52;20.80;48.00
56729;DHT22;42612;52.232;7.560;2023-04-21T11:44:40;20.80;47.80
56729;DHT22;42612;52.232;7.560;2023-04-21T11:47:14;20.90;46.80
56729;DHT22;42612;52.232;7.560;2023-04-21T11:49:52;20.90;46.90
56729;DHT22;42612;52.232;7.560;2023-04-21T11:52:27;20.90;46.70
56729;DHT22;42612;52.232;7.560;2023-04-21T11:55:04;20.90;46.80
56729;DHT22;42612;52.232;7.560;2023-04-21T11:57:32;20.80;46.40
56729;DHT22;42612;52.232;7.560;2023-04-21T12:00:00;20.80;47.00
56729;DHT22;42612;52.232;7.560;2023-04-21T12:02:29;20.80;47.20
56729;DHT22;42612;52.232;7.560;2023-04-21T12:05:17;20.90;47.90
56729;DHT22;42612;52.232;7.560;2023-04-21T12:07:44;20.90;47.80
56729;DHT22;42612;52.232;7.560;2023-04-21T12:10:14;21.00;47.30
56729;DHT22;42612;52.232;7.560;2023-04-21T12:12:42;21.10;46.90
56729;DHT22;42612;52.232;7.560;2023-04-21T12:15:10;21.20;46.60
56729;DHT22;42612;52.232;7.560;2023-04-21T12:17:43;21.20;46.30
56729;DHT22;42612;52.232;7.560;2023-04-21T12:20:11;21.20;45.60
56729;DHT22;42612;52.232;7.560;2023-04-21T12:22:37;21.20;46.50
56729;DHT22;42612;52.232;7.560;2023-04-21T12:25:04;21.20;46.30
56729;DHT22;42612;52.232;7.560;2023-04-21T12:27:30;21.20;46.00
56729;DHT22;42612;52.232;7.560;2023-04-21T12:29:56;21.20;46.20
56729;DHT22;42612;52.232;7.560;2023-04-21T12:32:23;21.30;46.10
56729;DHT22;42612;52.232;7.560;2023-04-21T12:34:49;21.30;46.10
56729;DHT22;42612;52.232;7.560;2023-04-21T12:37:14;21.40;46.10
56729;DHT22;42612;52.232;7.560;2023-04-21T12:39:40;21.40;46.00
56729;DHT22;42612;52.232;7.560;2023-04-21T12:42:06;21.50;45.80
56729;DHT22;42612;52.232;7.560;2023-04-21T12:44:32;21.60;45.70
56729;DHT22;42612;52.232;7.560;2023-04-21T12:46:57;21.60;45.80
56729;DHT22;42612;52.232;7.560;2023-04-21T12:49:24;21.70;45.70
56729;DHT22;42612;52.232;7.560;2023-04-21T12:51:50;21.80;45.30
56729;DHT22;42612;52.232;7.560;2023-04-21T12:54:15;21.90;45.30
56729;DHT22;42612;52.232;7.560;2023-04-21T12:56:41;22.10;45.00
56729;DHT22;42612;52.232;7.560;2023-04-21T12:59:09;22.20;44.50
56729;DHT22;42612;52.232;7.560;2023-04-21T13:01:39;22.30;44.30
56729;DHT22;42612;52.232;7.560;2023-04-21T13:04:06;22.40;43.30
56729;DHT22;42612;52.232;7.560;2023-04-21T13:06:32;22.40;43.50
56729;DHT22;42612;52.232;7.560;2023-04-21T13:08:58;22.40;43.40
56729;DHT22;42612;52.232;7.560;2023-04-21T13:11:24;22.40;43.30
56729;DHT22;42612;52.232;7.560;2023-04-21T13:13:50;22.40;42.90
56729;DHT22;42612;52.232;7.560;2023-04-21T13:16:16;22.40;42.80
56729;DHT22;42612;52.232;7.560;2023-04-21T13:18:43;22.50;42.90
56729;DHT22;42612;52.232;7.560;2023-04-21T13:21:09;22.60;42.90
56729;DHT22;42612;52.232;7.560;2023-04-21T13:23:35;22.50;42.50
56729;DHT22;42612;52.232;7.560;2023-04-21T13:26:01;22.60;42.30
56729;DHT22;42612;52.232;7.560;2023-04-21T13:28:26;22.70;42.30
56729;DHT22;42612;52.232;7.560;2023-04-21T13:30:52;22.70;42.30
56729;DHT22;42612;52.232;7.560;2023-04-21T13:33:18;22.70;42.20
56729;DHT22;42612;52.232;7.560;2023-04-21T13:35:44;22.70;42.00
56729;DHT22;42612;52.232;7.560;2023-04-21T13:38:11;22.70;42.00
56729;DHT22;42612;52.232;7.560;2023-04-21T13:40:37;22.70;41.70
56729;DHT22;42612;52.232;7.560;2023-04-21T13:43:03;22.70;41.50
56729;DHT22;42612;52.232;7.560;2023-04-21T13:45:28;22.70;41.40
56729;DHT22;42612;52.232;7.560;2023-04-21T13:47:54;22.70;41.60
56729;DHT22;42612;52.232;7.560;2023-04-21T13:50:22;22.70;41.50
56729;DHT22;42612;52.232;7.560;2023-04-21T13:52:48;22.70;41.30
56729;DHT22;42612;52.232;7.560;2023-04-21T13:55:13;22.70;41.10
56729;DHT22;42612;52.232;7.560;2023-04-21T13:57:39;22.60;41.10
56729;DHT22;42612;52.232;7.560;2023-04-21T14:00:05;22.60;41.10
56729;DHT22;42612;52.232;7.560;2023-04-21T14:02:33;22.60;40.90
56729;DHT22;42612;52.232;7.560;2023-04-21T14:04:59;22.50;40.60
56729;DHT22;42612;52.232;7.560;2023-04-21T14:07:25;22.50;40.60
56729;DHT22;42612;52.232;7.560;2023-04-21T14:09:50;22.50;40.60
56729;DHT22;42612;52.232;7.560;2023-04-21T14:12:17;22.40;40.70
56729;DHT22;42612;52.232;7.560;2023-04-21T14:14:43;22.40;40.70
56729;DHT22;42612;52.232;7.560;2023-04-21T14:17:08;22.30;40.60
56729;DHT22;42612;52.232;7.560;2023-04-21T14:19:34;22.40;40.30
56729;DHT22;42612;52.232;7.560;2023-04-21T14:22:00;22.30;40.40
56729;DHT22;42612;52.232;7.560;2023-04-21T14:24:26;22.30;40.40
56729;DHT22;42612;52.232;7.560;2023-04-21T14:26:54;22.30;40.40
56729;DHT22;42612;52.232;7.560;2023-04-21T14:29:24;22.20;40.30
56729;DHT22;42612;52.232;7.560;2023-04-21T14:31:49;22.20;40.10
56729;DHT22;42612;52.232;7.560;2023-04-21T14:34:17;22.20;40.60
56729;DHT22;42612;52.232;7.560;2023-04-21T14:36:43;22.10;40.30
56729;DHT22;42612;52.232;7.560;2023-04-21T14:39:11;22.20;40.40
56729;DHT22;42612;52.232;7.560;2023-04-21T14:41:37;22.20;40.40
56729;DHT22;42612;52.232;7.560;2023-04-21T14:44:03;22.10;40.30
56729;DHT22;42612;52.232;7.560;2023-04-21T14:46:28;22.20;40.30
56729;DHT22;42612;52.232;7.560;2023-04-21T14:48:55;22.20;40.40
56729;DHT22;42612;52.232;7.560;2023-04-21T14:51:21;22.10;40.20
56729;DHT22;42612;52.232;7.560;2023-04-21T14:53:47;22.10;40.10
56729;DHT22;42612;52.232;7.560;2023-04-21T14:56:13;22.10;40.00
56729;DHT22;42612;52.232;7.560;2023-04-21T14:58:40;22.20;40.00
56729;DHT22;42612;52.232;7.560;2023-04-21T15:01:06;22.20;39.90
56729;DHT22;42612;52.232;7.560;2023-04-21T15:03:32;22.20;39.70
56729;DHT22;42612;52.232;7.560;2023-04-21T15:05:57;22.20;39.70
56729;DHT22;42612;52.232;7.560;2023-04-21T15:08:23;22.10;39.70
56729;DHT22;42612;52.232;7.560;2023-04-21T15:10:49;22.10;39.50
56729;DHT22;42612;52.232;7.560;2023-04-21T15:13:15;22.20;39.50
56729;DHT22;42612;52.232;7.560;2023-04-21T15:15:41;22.10;39.20
56729;DHT22;42612;52.232;7.560;2023-04-21T15:18:06;22.10;39.10
56729;DHT22;42612;52.232;7.560;2023-04-21T15:20:32;22.10;39.10
56729;DHT22;42612;52.232;7.560;2023-04-21T15:22:58;22.10;38.90
56729;DHT22;42612;52.232;7.560;2023-04-21T15:25:24;22.00;38.80
56729;DHT22;42612;52.232;7.560;2023-04-21T15:27:50;22.00;38.70
56729;DHT22;42612;52.232;7.560;2023-04-21T15:30:15;22.00;38.80
56729;DHT22;42612;52.232;7.560;2023-04-21T15:32:41;22.00;38.90
56729;DHT22;42612;52.232;7.560;2023-04-21T15:35:07;22.00;38.80
56729;DHT22;42612;52.232;7.560;2023-04-21T15:37:33;21.90;38.70
56729;DHT22;42612;52.232;7.560;2023-04-21T15:39:59;21.90;38.90
56729;DHT22;42612;52.232;7.560;2023-04-21T15:42:25;21.90;38.80
56729;DHT22;42612;52.232;7.560;2023-04-21T15:44:51;21.90;38.90
56729;DHT22;42612;52.232;7.560;2023-04-21T15:47:18;21.80;38.80